createdAt,value
2022-08-16T00:00:03.376Z,18.58
2022-08-16T00:00:56.467Z,18.53
2022-08-16T00:01:56.762Z,18.49
2022-08-16T00:02:56.764Z,18.45
2022-08-16T00:03:56.128Z,18.42
2022-08-16T00:04:59.574Z,18.41
2022-08-16T00:05:57.959Z,18.38
2022-08-16T00:06:56.115Z,18.36
2022-08-16T00:07:57.572Z,18.34
2022-08-16T00:08:56.099Z,18.32
2022-08-16T00:09:56.081Z,18.3
2022-08-16T00:10:58.286Z,18.29
2022-08-16T00:11:56.093Z,18.28
2022-08-16T00:12:56.123Z,18.27
2022-08-16T00:13:56.094Z,18.27
2022-08-16T00:14:57.257Z,18.27
2022-08-16T00:15:56.096Z,18.26
2022-08-16T00:17:06.435Z,18.27
2022-08-16T00:17:59.148Z,18.26
2022-08-16T00:18:57.207Z,18.28
2022-08-16T00:19:56.096Z,18.3
2022-08-16T00:20:56.104Z,18.34
2022-08-16T00:22:01.463Z,18.36
2022-08-16T00:22:56.122Z,18.4
2022-08-16T00:23:56.083Z,18.43
2022-08-16T00:24:56.091Z,18.46
2022-08-16T00:26:34.142Z,18.49
2022-08-16T00:26:56.092Z,18.54
2022-08-16T00:27:56.104Z,18.6
2022-08-16T00:28:56.084Z,18.66
2022-08-16T00:30:01.095Z,18.71
2022-08-16T00:31:01.093Z,18.77
2022-08-16T00:32:00.912Z,18.81
2022-08-16T00:32:59.218Z,18.85
2022-08-16T00:33:56.423Z,18.87
2022-08-16T00:35:00.553Z,18.91
2022-08-16T00:35:56.432Z,18.92
2022-08-16T00:36:57.333Z,18.93
2022-08-16T00:37:59.301Z,18.93
2022-08-16T00:38:57.404Z,18.93
2022-08-16T00:39:58.699Z,18.94
2022-08-16T00:40:57.042Z,18.93
2022-08-16T00:41:56.432Z,18.91
2022-08-16T00:42:56.061Z,18.91
2022-08-16T00:43:56.370Z,18.9
2022-08-16T00:44:56.562Z,18.9
2022-08-16T00:46:00.423Z,18.91
2022-08-16T00:47:02.546Z,18.92
2022-08-16T00:47:56.462Z,18.95
2022-08-16T00:48:57.247Z,18.95
2022-08-16T00:49:57.587Z,18.95
2022-08-16T00:50:57.354Z,18.93
2022-08-16T00:51:56.654Z,18.92
2022-08-16T00:52:56.315Z,18.93
2022-08-16T00:53:56.161Z,18.97
2022-08-16T00:54:56.458Z,18.99
2022-08-16T00:55:57.212Z,18.99
2022-08-16T00:56:59.566Z,18.96
2022-08-16T00:57:58.475Z,18.94
2022-08-16T00:58:56.541Z,18.91
2022-08-16T00:59:59.794Z,18.89
2022-08-16T01:00:56.104Z,18.88
2022-08-16T01:01:56.101Z,18.88
2022-08-16T01:02:56.337Z,18.89
2022-08-16T01:03:56.124Z,18.91
2022-08-16T01:05:04.758Z,18.93
2022-08-16T01:05:56.084Z,18.97
2022-08-16T01:07:01.482Z,19.03
2022-08-16T01:07:56.073Z,19.08
2022-08-16T01:08:56.133Z,19.13
2022-08-16T01:09:56.100Z,19.16
2022-08-16T01:10:56.191Z,19.18
2022-08-16T01:11:57.149Z,19.2
2022-08-16T01:12:56.238Z,19.21
2022-08-16T01:13:56.132Z,19.25
2022-08-16T01:14:56.251Z,19.28
2022-08-16T01:15:56.382Z,19.3
2022-08-16T01:16:56.089Z,19.32
2022-08-16T01:17:56.349Z,19.31
2022-08-16T01:18:56.119Z,19.28
2022-08-16T01:19:59.106Z,19.27
2022-08-16T01:20:56.093Z,19.25
2022-08-16T01:21:56.101Z,19.24
2022-08-16T01:22:56.111Z,19.22
2022-08-16T01:24:01.246Z,19.24
2022-08-16T01:24:56.099Z,19.24
2022-08-16T01:25:59.995Z,19.26
2022-08-16T01:26:59.111Z,19.26
2022-08-16T01:27:56.100Z,19.26
2022-08-16T01:28:56.121Z,19.27
2022-08-16T01:29:59.858Z,19.3
2022-08-16T01:30:56.095Z,19.33
2022-08-16T01:31:56.078Z,19.36
2022-08-16T01:32:59.706Z,19.37
2022-08-16T01:33:57.137Z,19.44
2022-08-16T01:34:57.136Z,19.48
2022-08-16T01:35:57.107Z,19.5
2022-08-16T01:36:59.110Z,19.53
2022-08-16T01:37:57.102Z,19.54
2022-08-16T01:38:59.140Z,19.56
2022-08-16T01:39:56.122Z,19.59
2022-08-16T01:40:56.099Z,19.63
2022-08-16T01:41:56.100Z,19.68
2022-08-16T01:42:56.135Z,19.71
2022-08-16T01:43:56.102Z,19.72
2022-08-16T01:44:56.104Z,19.73
2022-08-16T01:45:59.105Z,19.73
2022-08-16T01:46:56.185Z,19.71
2022-08-16T01:47:56.092Z,19.72
2022-08-16T01:48:56.090Z,19.72
2022-08-16T01:50:41.334Z,19.72
2022-08-16T01:51:08.683Z,19.72
2022-08-16T01:51:56.098Z,19.7
2022-08-16T01:52:56.095Z,19.7
2022-08-16T01:53:57.095Z,19.69
2022-08-16T01:54:56.127Z,19.68
2022-08-16T01:55:57.109Z,19.66
2022-08-16T01:56:57.103Z,19.64
2022-08-16T01:57:57.114Z,19.62
2022-08-16T01:58:56.103Z,19.61
2022-08-16T01:59:56.086Z,19.61
2022-08-16T02:00:56.094Z,19.61
2022-08-16T02:01:59.474Z,19.6
2022-08-16T02:02:56.092Z,19.61
2022-08-16T02:04:10.560Z,19.61
2022-08-16T02:04:56.094Z,19.61
2022-08-16T02:05:56.102Z,19.6
2022-08-16T02:06:56.207Z,19.6
2022-08-16T02:07:56.170Z,19.6
2022-08-16T02:08:56.111Z,19.6
2022-08-16T02:09:59.788Z,19.59
2022-08-16T02:10:56.088Z,19.58
2022-08-16T02:11:56.107Z,19.57
2022-08-16T02:13:00.228Z,19.57
2022-08-16T02:13:56.091Z,19.57
2022-08-16T02:14:56.090Z,19.55
2022-08-16T02:15:56.106Z,19.55
2022-08-16T02:16:57.109Z,19.54
2022-08-16T02:17:56.157Z,19.53
2022-08-16T02:18:56.184Z,19.51
2022-08-16T02:20:00.574Z,19.5
2022-08-16T02:20:56.086Z,19.48
2022-08-16T02:22:08.147Z,19.46
2022-08-16T02:22:56.068Z,19.45
2022-08-16T02:23:56.092Z,19.45
2022-08-16T02:24:56.167Z,19.45
2022-08-16T02:25:56.064Z,19.44
2022-08-16T02:26:56.214Z,19.42
2022-08-16T02:27:56.128Z,19.4
2022-08-16T02:28:57.413Z,19.39
2022-08-16T02:30:04.705Z,19.38
2022-08-16T02:30:56.096Z,19.38
2022-08-16T02:32:04.241Z,19.4
2022-08-16T02:32:56.387Z,19.38
2022-08-16T02:33:56.309Z,19.38
2022-08-16T02:34:57.081Z,19.36
2022-08-16T02:36:00.188Z,19.36
2022-08-16T02:36:56.097Z,19.36
2022-08-16T02:37:57.092Z,19.36
2022-08-16T02:38:56.103Z,19.35
2022-08-16T02:39:56.087Z,19.38
2022-08-16T02:40:56.098Z,19.36
2022-08-16T02:41:56.094Z,19.36
2022-08-16T02:42:56.090Z,19.35
2022-08-16T02:43:56.088Z,19.32
2022-08-16T02:44:56.085Z,19.29
2022-08-16T02:45:56.261Z,19.25
2022-08-16T02:46:57.108Z,19.24
2022-08-16T02:48:00.934Z,19.21
2022-08-16T02:49:00.319Z,19.2
2022-08-16T02:50:53.131Z,19.18
2022-08-16T02:51:04.278Z,19.17
2022-08-16T02:51:56.094Z,19.15
2022-08-16T02:52:56.105Z,19.14
2022-08-16T02:53:57.099Z,19.11
2022-08-16T02:54:56.096Z,19.1
2022-08-16T02:55:56.099Z,19.08
2022-08-16T02:56:59.083Z,19.08
2022-08-16T02:57:56.101Z,19.07
2022-08-16T02:58:56.090Z,19.04
2022-08-16T02:59:56.107Z,19.02
2022-08-16T03:00:57.195Z,19.01
2022-08-16T03:01:56.143Z,19.01
2022-08-16T03:02:57.099Z,19
2022-08-16T03:04:28.599Z,18.99
2022-08-16T03:04:56.094Z,18.98
2022-08-16T03:05:56.101Z,18.97
2022-08-16T03:06:58.094Z,18.96
2022-08-16T03:07:56.110Z,18.94
2022-08-16T03:08:56.082Z,18.93
2022-08-16T03:10:00.354Z,18.93
2022-08-16T03:10:59.500Z,18.91
2022-08-16T03:11:56.448Z,18.9
2022-08-16T03:12:58.125Z,18.88
2022-08-16T03:13:57.619Z,18.86
2022-08-16T03:14:56.584Z,18.85
2022-08-16T03:15:55.979Z,18.86
2022-08-16T03:17:00.663Z,18.86
2022-08-16T03:17:56.598Z,18.86
2022-08-16T03:18:56.749Z,18.86
2022-08-16T03:20:00.359Z,18.87
2022-08-16T03:20:57.420Z,18.88
2022-08-16T03:21:56.250Z,18.87
2022-08-16T03:22:57.106Z,18.88
2022-08-16T03:23:56.117Z,18.88
2022-08-16T03:24:58.842Z,18.87
2022-08-16T03:25:56.089Z,18.87
2022-08-16T03:26:59.737Z,18.84
2022-08-16T03:27:56.086Z,18.83
2022-08-16T03:28:57.107Z,18.84
2022-08-16T03:29:56.089Z,18.84
2022-08-16T03:30:56.096Z,18.84
2022-08-16T03:31:56.109Z,18.83
2022-08-16T03:32:56.104Z,18.82
2022-08-16T03:33:56.134Z,18.81
2022-08-16T03:34:56.076Z,18.79
2022-08-16T03:35:59.107Z,18.76
2022-08-16T03:36:56.072Z,18.75
2022-08-16T03:38:02.167Z,18.74
2022-08-16T03:38:57.181Z,18.72
2022-08-16T03:40:01.909Z,18.71
2022-08-16T03:40:56.219Z,18.69
2022-08-16T03:41:59.396Z,18.67
2022-08-16T03:43:00.681Z,18.64
2022-08-16T03:43:56.506Z,18.61
2022-08-16T03:45:02.993Z,18.6
2022-08-16T03:45:56.111Z,18.56
2022-08-16T03:46:59.244Z,18.54
2022-08-16T03:47:58.227Z,18.52
2022-08-16T03:48:56.908Z,18.5
2022-08-16T03:49:56.127Z,18.49
2022-08-16T03:50:59.698Z,18.47
2022-08-16T03:51:56.086Z,18.46
2022-08-16T03:53:04.198Z,18.45
2022-08-16T03:54:01.467Z,18.43
2022-08-16T03:54:59.595Z,18.42
2022-08-16T03:55:56.090Z,18.41
2022-08-16T03:56:59.290Z,18.38
2022-08-16T03:57:56.069Z,18.36
2022-08-16T03:58:56.192Z,18.36
2022-08-16T03:59:56.416Z,18.35
2022-08-16T04:00:59.617Z,18.36
2022-08-16T04:01:56.105Z,18.36
2022-08-16T04:02:56.091Z,18.35
2022-08-16T04:03:56.085Z,18.35
2022-08-16T04:04:57.100Z,18.36
2022-08-16T04:05:56.129Z,18.35
2022-08-16T04:06:56.421Z,18.35
2022-08-16T04:07:56.153Z,18.36
2022-08-16T04:08:56.093Z,18.38
2022-08-16T04:09:59.092Z,18.4
2022-08-16T04:10:59.403Z,18.42
2022-08-16T04:11:56.213Z,18.43
2022-08-16T04:13:04.090Z,18.44
2022-08-16T04:13:59.820Z,18.46
2022-08-16T04:14:56.583Z,18.47
2022-08-16T04:15:56.098Z,18.46
2022-08-16T04:16:56.080Z,18.46
2022-08-16T04:17:56.257Z,18.46
2022-08-16T04:19:01.521Z,18.47
2022-08-16T04:19:59.860Z,18.49
2022-08-16T04:20:57.164Z,18.49
2022-08-16T04:21:57.379Z,18.5
2022-08-16T04:22:56.134Z,18.51
2022-08-16T04:23:56.109Z,18.53
2022-08-16T04:24:59.523Z,18.54
2022-08-16T04:25:57.210Z,18.55
2022-08-16T04:26:56.404Z,18.55
2022-08-16T04:27:57.232Z,18.57
2022-08-16T04:29:14.928Z,18.57
2022-08-16T04:30:02.691Z,18.56
2022-08-16T04:30:56.369Z,18.57
2022-08-16T04:31:59.185Z,18.58
2022-08-16T04:32:56.102Z,18.59
2022-08-16T04:33:56.088Z,18.61
2022-08-16T04:34:57.098Z,18.62
2022-08-16T04:35:56.090Z,18.64
2022-08-16T04:36:57.136Z,18.66
2022-08-16T04:37:56.102Z,18.69
2022-08-16T04:38:56.126Z,18.72
2022-08-16T04:39:57.197Z,18.74
2022-08-16T04:40:59.810Z,18.75
2022-08-16T04:41:59.101Z,18.76
2022-08-16T04:42:56.097Z,18.76
2022-08-16T04:43:56.119Z,18.77
2022-08-16T04:44:56.312Z,18.78
2022-08-16T04:46:00.611Z,18.79
2022-08-16T04:47:00.420Z,18.79
2022-08-16T04:47:57.108Z,18.82
2022-08-16T04:48:56.127Z,18.83
2022-08-16T04:49:56.100Z,18.84
2022-08-16T04:50:56.114Z,18.86
2022-08-16T04:51:56.102Z,18.88
2022-08-16T04:52:56.094Z,18.9
2022-08-16T04:53:56.108Z,18.93
2022-08-16T04:54:57.095Z,18.95
2022-08-16T04:55:56.078Z,18.98
2022-08-16T04:56:59.094Z,18.99
2022-08-16T04:57:56.091Z,19.02
2022-08-16T04:58:59.116Z,19.06
2022-08-16T04:59:56.098Z,19.09
2022-08-16T05:00:56.107Z,19.14
2022-08-16T05:01:59.586Z,19.19
2022-08-16T05:02:58.725Z,19.24
2022-08-16T05:04:00.202Z,19.28
2022-08-16T05:04:57.157Z,19.35
2022-08-16T05:06:02.190Z,19.42
2022-08-16T05:06:56.080Z,19.47
2022-08-16T05:07:59.977Z,19.52
2022-08-16T05:08:57.121Z,19.57
2022-08-16T05:09:56.098Z,19.61
2022-08-16T05:11:00.163Z,19.63
2022-08-16T05:11:59.110Z,19.67
2022-08-16T05:12:57.111Z,19.68
2022-08-16T05:14:06.779Z,19.7
2022-08-16T05:15:01.634Z,19.72
2022-08-16T05:15:57.090Z,19.73
2022-08-16T05:16:56.174Z,19.74
2022-08-16T05:17:59.773Z,19.74
2022-08-16T05:18:59.099Z,19.75
2022-08-16T05:19:59.094Z,19.75
2022-08-16T05:21:01.885Z,19.76
2022-08-16T05:21:56.100Z,19.78
2022-08-16T05:22:57.102Z,19.77
2022-08-16T05:24:00.441Z,19.77
2022-08-16T05:24:56.257Z,19.76
2022-08-16T05:25:56.246Z,19.75
2022-08-16T05:26:57.207Z,19.73
2022-08-16T05:27:57.085Z,19.74
2022-08-16T05:28:56.168Z,19.74
2022-08-16T05:30:01.148Z,19.74
2022-08-16T05:30:56.147Z,19.74
2022-08-16T05:31:56.094Z,19.74
2022-08-16T05:32:56.092Z,19.72
2022-08-16T05:33:56.093Z,19.71
2022-08-16T05:34:56.139Z,19.71
2022-08-16T05:35:57.085Z,19.7
2022-08-16T05:36:56.094Z,19.71
2022-08-16T05:37:57.092Z,19.72
2022-08-16T05:38:56.081Z,19.73
2022-08-16T05:39:56.200Z,19.74
2022-08-16T05:40:59.831Z,19.76
2022-08-16T05:41:56.192Z,19.76
2022-08-16T05:42:56.479Z,19.77
2022-08-16T05:43:59.375Z,19.78
2022-08-16T05:44:59.315Z,19.8
2022-08-16T05:45:57.389Z,19.83
2022-08-16T05:46:57.254Z,19.85
2022-08-16T05:47:59.395Z,19.89
2022-08-16T05:49:03.977Z,19.94
2022-08-16T05:49:56.103Z,19.98
2022-08-16T05:50:56.093Z,20.01
2022-08-16T05:51:56.102Z,20.03
2022-08-16T05:52:59.087Z,20.08
2022-08-16T05:53:56.095Z,20.12
2022-08-16T05:55:01.329Z,20.16
2022-08-16T05:55:56.097Z,20.2
2022-08-16T05:56:56.109Z,20.26
2022-08-16T05:57:56.096Z,20.29
2022-08-16T05:58:56.091Z,20.35
2022-08-16T05:59:59.595Z,20.38
2022-08-16T06:00:57.095Z,20.41
2022-08-16T06:01:56.152Z,20.46
2022-08-16T06:02:56.092Z,20.52
2022-08-16T06:03:57.103Z,20.57
2022-08-16T06:04:56.091Z,20.63
2022-08-16T06:05:56.114Z,20.67
2022-08-16T06:06:59.374Z,20.73
2022-08-16T06:07:59.361Z,20.77
2022-08-16T06:08:56.075Z,20.79
2022-08-16T06:09:56.096Z,20.85
2022-08-16T06:11:02.725Z,20.88
2022-08-16T06:11:56.092Z,20.92
2022-08-16T06:12:57.119Z,20.97
2022-08-16T06:13:56.085Z,21.02
2022-08-16T06:14:56.105Z,21.08
2022-08-16T06:15:56.098Z,21.13
2022-08-16T06:16:56.102Z,21.18
2022-08-16T06:17:56.157Z,21.29
2022-08-16T06:18:56.254Z,21.45
2022-08-16T06:19:56.085Z,21.66
2022-08-16T06:21:01.106Z,21.82
2022-08-16T06:21:57.101Z,21.98
2022-08-16T06:23:03.854Z,22.23
2022-08-16T06:23:56.066Z,22.43
2022-08-16T06:24:56.952Z,22.61
2022-08-16T06:25:57.474Z,22.87
2022-08-16T06:26:59.158Z,23.04
2022-08-16T06:27:59.426Z,23.16
2022-08-16T06:28:57.715Z,23.2
2022-08-16T06:29:56.001Z,23.3
2022-08-16T06:30:57.386Z,23.37
2022-08-16T06:31:57.361Z,23.55
2022-08-16T06:32:56.825Z,23.72
2022-08-16T06:33:56.099Z,23.73
2022-08-16T06:35:02.205Z,23.86
2022-08-16T06:35:59.604Z,24
2022-08-16T06:36:59.139Z,24.1
2022-08-16T06:37:56.099Z,24.23
2022-08-16T06:38:57.178Z,24.18
2022-08-16T06:39:56.137Z,24.29
2022-08-16T06:40:56.093Z,24.44
2022-08-16T06:41:56.103Z,24.39
2022-08-16T06:42:59.807Z,24.44
2022-08-16T06:43:56.082Z,24.29
2022-08-16T06:44:56.108Z,24.17
2022-08-16T06:45:56.090Z,24.27
2022-08-16T06:46:56.094Z,24.37
2022-08-16T06:47:59.102Z,24.3
2022-08-16T06:48:56.095Z,24.42
2022-08-16T06:49:59.150Z,24.48
2022-08-16T06:50:56.203Z,24.55
2022-08-16T06:52:02.841Z,24.64
2022-08-16T06:53:00.124Z,24.82
2022-08-16T06:53:56.097Z,25.04
2022-08-16T06:54:56.100Z,25.13
2022-08-16T06:55:56.096Z,25.2
2022-08-16T06:56:56.095Z,25.19
2022-08-16T06:57:56.095Z,25.09
2022-08-16T06:58:56.138Z,25.09
2022-08-16T06:59:59.099Z,25.11
2022-08-16T07:00:59.647Z,25.21
2022-08-16T07:01:59.196Z,25.2
2022-08-16T07:02:56.311Z,25.07
2022-08-16T07:03:59.142Z,24.91
2022-08-16T07:04:56.105Z,24.74
2022-08-16T07:05:56.091Z,24.62
2022-08-16T07:06:56.100Z,24.65
2022-08-16T07:07:56.096Z,24.72
2022-08-16T07:08:56.118Z,24.77
2022-08-16T07:09:56.116Z,24.82
2022-08-16T07:10:56.105Z,24.97
2022-08-16T07:12:03.841Z,25.02
2022-08-16T07:13:03.664Z,25.15
2022-08-16T07:14:03.906Z,25.2
2022-08-16T07:15:00.019Z,25.41
2022-08-16T07:15:56.097Z,25.7
2022-08-16T07:16:57.752Z,25.94
2022-08-16T07:17:56.077Z,25.98
2022-08-16T07:19:01.074Z,26.11
2022-08-16T07:20:02.307Z,26.2
2022-08-16T07:21:01.917Z,26.29
2022-08-16T07:21:59.727Z,26.21
2022-08-16T07:22:59.455Z,26.08
2022-08-16T07:24:05.741Z,25.87
2022-08-16T07:24:56.404Z,25.82
2022-08-16T07:25:56.078Z,25.55
2022-08-16T07:26:56.319Z,25.65
2022-08-16T07:27:56.081Z,25.84
2022-08-16T07:28:56.077Z,25.94
2022-08-16T07:29:57.387Z,25.99
2022-08-16T07:30:56.115Z,25.98
2022-08-16T07:31:56.106Z,26.05
2022-08-16T07:32:56.450Z,26.06
2022-08-16T07:33:56.088Z,26.15
2022-08-16T07:34:56.113Z,26.17
2022-08-16T07:35:56.086Z,26.43
2022-08-16T07:36:59.456Z,26.76
2022-08-16T07:37:56.092Z,27.05
2022-08-16T07:38:56.115Z,27.31
2022-08-16T07:39:56.118Z,27.5
2022-08-16T07:41:01.126Z,27.68
2022-08-16T07:41:56.380Z,27.9
2022-08-16T07:42:56.189Z,28.04
2022-08-16T07:43:56.198Z,27.98
2022-08-16T07:44:59.178Z,27.98
2022-08-16T07:45:56.374Z,28.03
2022-08-16T07:46:57.097Z,28.1
2022-08-16T07:47:56.095Z,28.28
2022-08-16T07:49:02.176Z,28.39
2022-08-16T07:49:59.100Z,28.46
2022-08-16T07:51:00.282Z,28.55
2022-08-16T07:51:57.117Z,28.62
2022-08-16T07:52:56.113Z,28.64
2022-08-16T07:54:02.294Z,28.64
2022-08-16T07:54:56.088Z,28.76
2022-08-16T07:55:56.097Z,28.99
2022-08-16T07:56:57.098Z,28.92
2022-08-16T07:58:00.627Z,28.84
2022-08-16T07:58:59.095Z,28.42
2022-08-16T07:59:59.102Z,28
2022-08-16T08:00:56.143Z,27.6
2022-08-16T08:01:57.105Z,27.5
2022-08-16T08:02:57.216Z,27.39
2022-08-16T08:03:56.206Z,27.48
2022-08-16T08:04:56.105Z,27.48
2022-08-16T08:05:56.093Z,27.52
2022-08-16T08:06:57.101Z,27.49
2022-08-16T08:07:59.103Z,27.67
2022-08-16T08:08:59.446Z,27.6
2022-08-16T08:09:56.100Z,27.49
2022-08-16T08:10:56.087Z,27.36
2022-08-16T08:11:59.635Z,27.43
2022-08-16T08:12:59.430Z,27.58
2022-08-16T08:13:57.092Z,27.94
2022-08-16T08:14:56.132Z,28.3
2022-08-16T08:15:56.094Z,28.5
2022-08-16T08:16:57.215Z,28.53
2022-08-16T08:17:56.097Z,28.62
2022-08-16T08:19:00.819Z,28.75
2022-08-16T08:19:56.091Z,28.78
2022-08-16T08:20:59.812Z,28.94
2022-08-16T08:22:01.998Z,29.09
2022-08-16T08:23:00.190Z,29.19
2022-08-16T08:23:56.117Z,28.91
2022-08-16T08:24:59.240Z,28.95
2022-08-16T08:25:56.112Z,28.94
2022-08-16T08:26:56.090Z,28.67
2022-08-16T08:27:59.131Z,28.58
2022-08-16T08:29:00.870Z,28.51
2022-08-16T08:30:09.112Z,28.61
2022-08-16T08:31:00.551Z,28.84
2022-08-16T08:31:57.100Z,28.87
2022-08-16T08:33:00.603Z,28.99
2022-08-16T08:33:56.091Z,28.96
2022-08-16T08:35:00.451Z,29.22
2022-08-16T08:35:57.110Z,29.33
2022-08-16T08:36:56.327Z,29.48
2022-08-16T08:37:57.406Z,29.52
2022-08-16T08:38:57.298Z,29.63
2022-08-16T08:39:56.109Z,29.47
2022-08-16T08:40:56.350Z,29.32
2022-08-16T08:41:56.464Z,29.33
2022-08-16T08:43:00.496Z,29.47
2022-08-16T08:43:56.245Z,29.63
2022-08-16T08:44:56.522Z,29.41
2022-08-16T08:45:56.221Z,29.46
2022-08-16T08:46:59.872Z,29.52
2022-08-16T08:47:58.530Z,29.52
2022-08-16T08:49:02.030Z,29.62
2022-08-16T08:49:59.103Z,29.8
2022-08-16T08:50:59.749Z,29.91
2022-08-16T08:51:56.261Z,30.14
2022-08-16T08:52:57.121Z,30.32
2022-08-16T08:53:59.431Z,30.24
2022-08-16T08:54:56.414Z,30.37
2022-08-16T08:55:58.946Z,30.54
2022-08-16T08:56:56.181Z,30.65
2022-08-16T08:57:56.968Z,30.78
2022-08-16T08:59:03.184Z,30.98
2022-08-16T08:59:57.956Z,31.09
2022-08-16T09:00:57.417Z,30.82
2022-08-16T09:01:59.428Z,30.64
2022-08-16T09:02:57.262Z,30.62
2022-08-16T09:03:56.453Z,30.46
2022-08-16T09:04:59.242Z,30.35
2022-08-16T09:05:56.109Z,30.37
2022-08-16T09:06:56.092Z,30.42
2022-08-16T09:08:01.133Z,30.35
2022-08-16T09:08:57.202Z,30.15
2022-08-16T09:10:00.777Z,30.18
2022-08-16T09:11:02.443Z,30.3
2022-08-16T09:12:04.261Z,30.59
2022-08-16T09:12:57.103Z,30.73
2022-08-16T09:13:56.094Z,30.56
2022-08-16T09:14:56.092Z,30.4
2022-08-16T09:15:56.087Z,30.42
2022-08-16T09:17:00.886Z,30.09
2022-08-16T09:17:56.131Z,30.17
2022-08-16T09:19:02.395Z,30.28
2022-08-16T09:19:58.521Z,30.53
2022-08-16T09:21:00.475Z,30.77
2022-08-16T09:21:57.100Z,30.71
2022-08-16T09:22:56.103Z,30.3
2022-08-16T09:23:56.085Z,30.26
2022-08-16T09:25:09.637Z,30.32
2022-08-16T09:25:56.095Z,30.26
2022-08-16T09:26:56.097Z,30.4
2022-08-16T09:28:02.621Z,30.35
2022-08-16T09:29:14.346Z,30.44
2022-08-16T09:29:59.665Z,30.55
2022-08-16T09:30:56.100Z,30.67
2022-08-16T09:31:56.094Z,30.5
2022-08-16T09:32:56.090Z,29.98
2022-08-16T09:33:56.086Z,29.89
2022-08-16T09:34:59.109Z,29.86
2022-08-16T09:35:56.094Z,29.78
2022-08-16T09:37:00.217Z,29.72
2022-08-16T09:38:00.394Z,29.85
2022-08-16T09:38:59.714Z,29.97
2022-08-16T09:39:56.277Z,30.04
2022-08-16T09:40:59.241Z,30.19
2022-08-16T09:41:56.300Z,30.47
2022-08-16T09:43:00.906Z,30.76
2022-08-16T09:44:20.742Z,31.1
2022-08-16T09:45:09.841Z,31.5
2022-08-16T09:45:55.843Z,31.39
2022-08-16T09:46:59.137Z,31.32
2022-08-16T09:47:58.165Z,31.44
2022-08-16T09:48:57.705Z,31.35
2022-08-16T09:49:56.094Z,31.54
2022-08-16T09:50:57.418Z,31.71
2022-08-16T09:51:57.667Z,31.93
2022-08-16T09:52:56.181Z,32.04
2022-08-16T09:53:56.117Z,32.03
2022-08-16T09:54:56.086Z,31.85
2022-08-16T09:55:59.340Z,31.95
2022-08-16T09:56:57.103Z,32.09
2022-08-16T09:57:56.087Z,32.09
2022-08-16T09:59:03.414Z,32.07
2022-08-16T09:59:57.093Z,31.97
2022-08-16T10:00:57.112Z,31.87
2022-08-16T10:01:56.094Z,31.86
2022-08-16T10:02:57.258Z,31.87
2022-08-16T10:04:01.336Z,31.86
2022-08-16T10:04:56.218Z,31.94
2022-08-16T10:05:56.088Z,31.72
2022-08-16T10:07:57.087Z,31.78
2022-08-16T10:09:04.476Z,31.86
2022-08-16T10:09:57.099Z,31.82
2022-08-16T10:10:56.120Z,32.01
2022-08-16T10:11:56.086Z,32.17
2022-08-16T10:12:57.106Z,32.39
2022-08-16T10:13:56.095Z,32.55
2022-08-16T10:14:56.223Z,32.76
2022-08-16T10:15:56.119Z,32.94
2022-08-16T10:16:59.852Z,32.96
2022-08-16T10:18:00.495Z,32.96
2022-08-16T10:19:02.421Z,33.1
2022-08-16T10:19:57.105Z,33.24
2022-08-16T10:20:59.133Z,33.23
2022-08-16T10:21:57.100Z,33.4
2022-08-16T10:23:05.679Z,33.48
2022-08-16T10:23:56.102Z,33.65
2022-08-16T10:24:59.501Z,33.58
2022-08-16T10:27:00.153Z,33.06
2022-08-16T10:27:20.980Z,32.75
2022-08-16T10:28:26.486Z,32.65
2022-08-16T10:28:56.075Z,32.55
2022-08-16T10:30:02.128Z,32.38
2022-08-16T10:30:59.496Z,32.46
2022-08-16T10:31:57.076Z,32.48
2022-08-16T10:32:56.088Z,32.35
2022-08-16T10:33:56.059Z,32.17
2022-08-16T10:34:56.291Z,32.4
2022-08-16T10:36:03.268Z,32.39
2022-08-16T10:36:56.076Z,32.38
2022-08-16T10:37:56.193Z,32.24
2022-08-16T10:38:56.157Z,32.15
2022-08-16T10:39:56.464Z,32.05
2022-08-16T10:40:56.094Z,32.06
2022-08-16T10:41:56.090Z,32.03
2022-08-16T10:42:56.241Z,32.05
2022-08-16T10:43:56.107Z,32.17
2022-08-16T10:44:56.089Z,32.25
2022-08-16T10:46:00.090Z,32.49
2022-08-16T10:46:56.212Z,32.59
2022-08-16T10:48:00.859Z,32.84
2022-08-16T10:48:56.228Z,32.73
2022-08-16T10:49:57.061Z,32.84
2022-08-16T10:50:56.091Z,32.97
2022-08-16T10:52:01.038Z,33.19
2022-08-16T10:52:59.590Z,33.37
2022-08-16T10:53:56.122Z,33.59
2022-08-16T10:54:59.506Z,33.57
2022-08-16T10:55:59.341Z,33.64
2022-08-16T10:56:59.236Z,33.3
2022-08-16T10:57:57.279Z,32.74
2022-08-16T10:58:56.377Z,32.23
2022-08-16T10:59:59.125Z,31.81
2022-08-16T11:00:59.222Z,31.7
2022-08-16T11:03:01.166Z,32.09
2022-08-16T11:03:59.332Z,32.39
2022-08-16T11:05:08.448Z,32.67
2022-08-16T11:05:59.672Z,32.89
2022-08-16T11:07:08.120Z,32.9
2022-08-16T11:07:56.346Z,32.94
2022-08-16T11:09:25.916Z,32.93
2022-08-16T11:10:19.628Z,32.85
2022-08-16T11:11:04.639Z,32.99
2022-08-16T11:12:14.681Z,33.02
2022-08-16T11:12:56.241Z,33.1
2022-08-16T11:14:00.075Z,33.11
2022-08-16T11:15:13.721Z,33.29
2022-08-16T11:15:59.181Z,33.3
2022-08-16T11:17:09.410Z,33.48
2022-08-16T11:18:49.249Z,33.34
2022-08-16T11:19:05.137Z,33.24
2022-08-16T11:20:01.072Z,32.97
2022-08-16T11:20:56.093Z,32.71
2022-08-16T11:22:23.444Z,32.55
2022-08-16T11:22:56.094Z,32.41
2022-08-16T11:23:59.785Z,32.51
2022-08-16T11:25:12.474Z,32.67
2022-08-16T11:26:07.315Z,32.87
2022-08-16T11:27:21.470Z,33.04
2022-08-16T11:27:57.107Z,33.11
2022-08-16T11:29:14.599Z,32.84
2022-08-16T11:29:56.233Z,32.63
2022-08-16T11:30:59.104Z,32.59
2022-08-16T11:31:56.083Z,32.71
2022-08-16T11:32:56.094Z,32.96
2022-08-16T11:33:57.131Z,33
2022-08-16T11:35:11.354Z,33.1
2022-08-16T11:36:24.935Z,33.07
2022-08-16T11:36:59.586Z,32.95
2022-08-16T11:38:23.857Z,32.81
2022-08-16T11:38:59.374Z,32.55
2022-08-16T11:39:59.760Z,32.31
2022-08-16T11:40:56.128Z,32.17
2022-08-16T11:41:56.091Z,32.13
2022-08-16T11:42:56.132Z,31.78
2022-08-16T11:43:56.097Z,31.66
2022-08-16T11:44:59.280Z,31.74
2022-08-16T11:45:57.057Z,31.93
2022-08-16T11:46:56.194Z,32.21
2022-08-16T11:47:56.258Z,32.38
2022-08-16T11:48:56.060Z,32.59
2022-08-16T11:49:56.208Z,32.98
2022-08-16T11:50:57.499Z,32.93
2022-08-16T11:51:56.629Z,32.91
2022-08-16T11:52:57.114Z,32.86
2022-08-16T11:53:56.749Z,32.8
2022-08-16T11:55:00.051Z,32.84
2022-08-16T11:55:56.372Z,32.79
2022-08-16T11:56:57.825Z,33.05
2022-08-16T11:57:59.092Z,33.22
2022-08-16T11:58:57.363Z,33.39
2022-08-16T11:59:56.077Z,33.55
2022-08-16T12:00:56.148Z,33.66
2022-08-16T12:02:00.142Z,33.44
2022-08-16T12:02:56.161Z,33.11
2022-08-16T12:03:56.119Z,32.51
2022-08-16T12:04:56.278Z,32.35
2022-08-16T12:05:56.060Z,32.2
2022-08-16T12:06:56.067Z,32.21
2022-08-16T12:07:56.222Z,32.1
2022-08-16T12:08:56.511Z,31.93
2022-08-16T12:09:57.172Z,32.05
2022-08-16T12:10:59.330Z,32.17
2022-08-16T12:11:56.442Z,32.54
2022-08-16T12:12:59.159Z,32.42
2022-08-16T12:13:56.281Z,32.42
2022-08-16T12:15:00.450Z,32.48
2022-08-16T12:15:56.464Z,32.34
2022-08-16T12:16:57.136Z,32.25
2022-08-16T12:17:56.353Z,31.88
2022-08-16T12:18:56.122Z,31.54
2022-08-16T12:19:56.091Z,31.31
2022-08-16T12:20:59.961Z,31.34
2022-08-16T12:21:59.642Z,31.34
2022-08-16T12:22:56.109Z,31.39
2022-08-16T12:23:56.107Z,31.57
2022-08-16T12:24:56.246Z,31.83
2022-08-16T12:25:56.087Z,32.22
2022-08-16T12:26:56.101Z,32.41
2022-08-16T12:27:56.096Z,32.53
2022-08-16T12:28:57.103Z,32.65
2022-08-16T12:29:59.105Z,32.51
2022-08-16T12:30:56.088Z,32.67
2022-08-16T12:32:01.769Z,32.23
2022-08-16T12:32:59.153Z,32.45
2022-08-16T12:33:59.142Z,32.66
2022-08-16T12:34:56.113Z,33
2022-08-16T12:35:56.096Z,33.09
2022-08-16T12:36:56.092Z,33.34
2022-08-16T12:37:57.125Z,33.65
2022-08-16T12:38:56.103Z,33.85
2022-08-16T12:39:56.331Z,34.06
2022-08-16T12:40:59.093Z,34.35
2022-08-16T12:41:56.104Z,34.49
2022-08-16T12:42:59.382Z,34.42
2022-08-16T12:44:01.164Z,34.41
2022-08-16T12:44:56.104Z,34.6
2022-08-16T12:45:56.093Z,34.69
2022-08-16T12:46:56.091Z,34.74
2022-08-16T12:48:22.442Z,34.8
2022-08-16T12:48:57.133Z,34.95
2022-08-16T12:49:56.085Z,34.99
2022-08-16T12:50:59.109Z,34.95
2022-08-16T12:52:00.259Z,34.68
2022-08-16T12:52:57.331Z,34.32
2022-08-16T12:53:56.094Z,34.46
2022-08-16T12:54:56.094Z,34.6
2022-08-16T12:55:56.086Z,34.74
2022-08-16T12:56:56.092Z,34.73